Time;durP1;ratioP1;P1;durP2;ratioP2;P2;SDS_P1;SDS_P2;PMS_P1;PMS_P2;Temp;Humidity;BMP_temperature;BMP_pressure;BME280_temperature;BME280_humidity;BME280_pressure;Samples;Min_cycle;Max_cycle;Signal;HPM_P1;HPM_P2
2021/07/31 00:00:06;;;;;;;5.73;4.93;;;;;;;19.11;71.34;100517.81;3584544;40;20214;-74
2021/07/31 00:02:32;;;;;;;6.17;5.57;;;;;;;19.34;71.02;100525.19;3586689;40;20244;-74
2021/07/31 00:04:57;;;;;;;5.57;5.07;;;;;;;19.30;70.44;100526.13;3586595;40;20233;-73
2021/07/31 00:07:22;;;;;;;6.07;4.90;;;;;;;18.96;71.65;100520.75;3579338;40;20624;-73
2021/07/31 00:09:47;;;;;;;6.67;5.13;;;;;;;19.04;71.79;100511.06;3577689;40;20226;-72
2021/07/31 00:12:13;;;;;;;5.77;4.87;;;;;;;19.12;70.79;100513.50;3577759;40;20237;-73
2021/07/31 00:14:38;;;;;;;4.60;4.20;;;;;;;19.30;69.03;100526.97;3577626;40;20620;-75
2021/07/31 00:17:06;;;;;;;4.83;4.33;;;;;;;19.34;69.39;100520.00;3577811;40;20505;-73
2021/07/31 00:19:32;;;;;;;5.23;4.53;;;;;;;18.94;70.43;100517.34;3577285;40;20241;-74
2021/07/31 00:21:57;;;;;;;5.13;4.63;;;;;;;18.99;70.63;100517.22;3577549;40;20237;-73
2021/07/31 00:24:22;;;;;;;6.23;4.73;;;;;;;19.13;69.75;100517.81;3577632;40;20514;-74
2021/07/31 00:26:47;;;;;;;4.50;4.10;;;;;;;18.85;70.29;100517.50;3577674;40;20218;-74
2021/07/31 00:29:13;;;;;;;5.13;4.13;;;;;;;18.82;70.46;100512.38;3577392;40;20323;-74
2021/07/31 00:31:38;;;;;;;4.50;4.10;;;;;;;18.97;69.68;100513.81;3577540;40;20217;-73
2021/07/31 00:34:03;;;;;;;4.60;4.10;;;;;;;18.99;69.03;100512.03;3577393;40;20218;-74
2021/07/31 00:36:28;;;;;;;4.50;4.10;;;;;;;18.95;69.67;100503.47;3580263;40;20357;-74
2021/07/31 00:38:54;;;;;;;4.10;3.63;;;;;;;18.78;70.49;100510.72;3587530;40;20229;-74
2021/07/31 00:41:19;;;;;;;4.40;4.00;;;;;;;18.77;69.95;100514.19;3587699;40;20604;-74
2021/07/31 00:43:44;;;;;;;7.67;4.03;;;;;;;18.73;70.23;100514.25;3587416;40;20230;-73
2021/07/31 00:46:11;;;;;;;4.03;3.63;;;;;;;18.64;70.72;100510.13;3587889;40;20495;-73
2021/07/31 00:48:36;;;;;;;4.87;3.90;;;;;;;18.66;70.00;100508.34;3586406;40;20253;-74
2021/07/31 00:51:01;;;;;;;5.00;3.70;;;;;;;18.80;70.53;100518.47;3580397;40;20299;-74
2021/07/31 00:53:27;;;;;;;5.63;4.50;;;;;;;18.71;70.71;100509.13;3568477;40;20229;-74
2021/07/31 00:55:56;;;;;;;4.40;3.80;;;;;;;18.72;70.51;100505.66;3587392;40;20226;-74
2021/07/31 00:58:22;;;;;;;5.43;4.70;;;;;;;18.79;70.73;100508.97;3587209;40;20285;-74
2021/07/31 01:00:48;;;;;;;5.20;4.70;;;;;;;18.93;70.07;100510.41;3582976;40;20237;-73
2021/07/31 01:03:13;;;;;;;4.77;4.37;;;;;;;18.74;71.08;100511.66;3587347;40;20244;-74
2021/07/31 01:05:39;;;;;;;5.33;4.77;;;;;;;18.65;71.73;100508.41;3587357;40;20217;-74
2021/07/31 01:08:04;;;;;;;7.23;4.90;;;;;;;18.39;72.40;100510.59;3587235;40;20241;-74
2021/07/31 01:10:31;;;;;;;4.83;4.33;;;;;;;18.32;72.85;100508.94;3588309;40;20270;-74
2021/07/31 01:12:58;;;;;;;3.87;3.47;;;;;;;18.18;73.75;100516.97;3589943;40;20597;-74
2021/07/31 01:15:23;;;;;;;5.97;4.53;;;;;;;18.11;73.88;100507.59;3588049;40;20315;-74
2021/07/31 01:17:48;;;;;;;5.50;4.50;;;;;;;18.03;74.76;100509.44;3589947;40;20249;-74
2021/07/31 01:20:14;;;;;;;4.17;3.77;;;;;;;17.89;74.83;100508.81;3588980;40;20232;-74
2021/07/31 01:22:39;;;;;;;5.23;4.27;;;;;;;17.83;74.88;100501.13;3587897;40;20496;-73
2021/07/31 01:25:05;;;;;;;3.87;3.57;;;;;;;17.80;75.25;100497.72;3587893;40;20299;-74
2021/07/31 01:27:30;;;;;;;3.93;3.53;;;;;;;17.78;75.45;100502.91;3578365;40;20512;-74
2021/07/31 01:29:56;;;;;;;4.50;4.10;;;;;;;17.81;75.59;100497.72;3587609;40;20237;-74
2021/07/31 01:32:21;;;;;;;4.43;4.03;;;;;;;17.94;75.37;100498.38;3587902;40;20229;-74
2021/07/31 01:34:46;;;;;;;4.63;3.87;;;;;;;18.03;75.03;100499.09;3587675;40;20260;-74
2021/07/31 01:37:12;;;;;;;5.70;5.13;;;;;;;18.08;74.66;100488.63;3587552;40;20260;-74
2021/07/31 01:39:37;;;;;;;5.93;4.40;;;;;;;18.00;75.22;100500.88;3582093;40;20246;-74
2021/07/31 01:42:06;;;;;;;6.73;6.00;;;;;;;18.31;73.92;100491.69;3577737;40;20232;-74
2021/07/31 01:44:31;;;;;;;6.93;6.27;;;;;;;18.55;72.83;100501.63;3577642;40;20230;-74
2021/07/31 01:46:57;;;;;;;8.23;6.13;;;;;;;18.66;72.97;100494.53;3577489;40;20504;-74
2021/07/31 01:49:22;;;;;;;7.10;6.40;;;;;;;18.71;72.86;100497.88;3577442;40;20245;-74
2021/07/31 01:51:47;;;;;;;7.07;6.30;;;;;;;18.56;73.20;100498.19;3577836;40;20344;-74
2021/07/31 01:54:12;;;;;;;7.23;6.53;;;;;;;18.66;73.11;100505.75;3577672;40;20320;-74
2021/07/31 01:56:38;;;;;;;8.07;6.23;;;;;;;18.69;72.78;100507.41;3577967;40;20314;-74
2021/07/31 01:59:03;;;;;;;8.60;6.87;;;;;;;18.52;73.31;100505.16;3582372;40;20237;-74
2021/07/31 02:01:28;;;;;;;9.37;6.40;;;;;;;18.44;73.35;100503.59;3586152;40;20222;-74
2021/07/31 02:03:53;;;;;;;7.93;6.43;;;;;;;18.44;73.09;100501.00;3583892;40;20241;-74
2021/07/31 02:06:19;;;;;;;6.90;6.17;;;;;;;18.47;72.80;100501.78;3587132;40;20293;-73
2021/07/31 02:08:44;;;;;;;6.90;5.97;;;;;;;18.22;73.80;100494.44;3587459;40;20237;-73
2021/07/31 02:11:10;;;;;;;6.27;5.67;;;;;;;18.28;72.85;100499.53;3587365;40;20297;-73
2021/07/31 02:13:36;;;;;;;8.10;5.43;;;;;;;18.27;71.94;100497.78;3587155;40;20229;-73
2021/07/31 02:16:01;;;;;;;5.90;5.30;;;;;;;18.09;72.57;100498.97;3587275;40;20224;-73
2021/07/31 02:18:26;;;;;;;5.83;4.47;;;;;;;18.09;71.54;100490.31;3587231;40;20541;-73
2021/07/31 02:20:52;;;;;;;6.23;4.00;;;;;;;18.15;70.87;100491.09;3577886;40;20632;-74
2021/07/31 02:23:17;;;;;;;5.20;4.10;;;;;;;18.12;70.91;100485.09;3587180;40;20256;-74
2021/07/31 02:25:42;;;;;;;4.30;3.70;;;;;;;18.04;70.96;100479.19;3578024;40;20371;-73
2021/07/31 02:28:07;;;;;;;5.47;3.80;;;;;;;18.05;70.41;100480.91;3587123;40;20248;-74
2021/07/31 02:30:33;;;;;;;5.17;3.37;;;;;;;17.98;70.53;100482.75;3587197;40;20501;-74
2021/07/31 02:32:58;;;;;;;7.07;3.73;;;;;;;17.90;70.27;100484.59;3587074;40;20238;-73
2021/07/31 02:35:23;;;;;;;5.67;3.40;;;;;;;17.89;70.83;100479.44;3587281;40;20499;-73
2021/07/31 02:37:49;;;;;;;4.37;3.77;;;;;;;17.92;70.64;100487.19;3578442;40;20236;-73
2021/07/31 02:40:14;;;;;;;4.17;3.50;;;;;;;17.79;71.13;100483.06;3576909;40;20315;-74
2021/07/31 02:42:39;;;;;;;4.80;3.53;;;;;;;17.67;71.12;100480.66;3577300;40;20217;-73
2021/07/31 02:45:05;;;;;;;4.30;2.80;;;;;;;17.67;70.80;100475.47;3577572;40;20690;-73
2021/07/31 02:47:31;;;;;;;4.67;2.80;;;;;;;17.76;69.77;100472.75;3577231;40;20231;-73
2021/07/31 02:49:56;;;;;;;6.97;3.43;;;;;;;17.70;69.94;100485.78;3577054;40;20613;-73
2021/07/31 02:52:22;;;;;;;3.27;2.80;;;;;;;17.63;70.31;100481.56;3576868;40;20556;-73
2021/07/31 02:54:48;;;;;;;5.53;3.13;;;;;;;17.61;69.90;100481.63;3582589;40;20242;-73
2021/07/31 02:57:13;;;;;;;5.13;3.27;;;;;;;17.50;70.46;100480.91;3584944;40;20229;-73
2021/07/31 02:59:39;;;;;;;5.53;3.40;;;;;;;17.48;70.20;100474.91;3586904;40;20251;-73
2021/07/31 03:02:04;;;;;;;4.07;3.00;;;;;;;17.38;71.08;100480.19;3577625;40;20225;-73
2021/07/31 03:04:29;;;;;;;7.30;3.17;;;;;;;17.38;70.93;100481.06;3586987;40;20261;-73
2021/07/31 03:06:55;;;;;;;6.37;2.63;;;;;;;17.40;71.04;100481.09;3587307;40;20651;-74
2021/07/31 03:09:20;;;;;;;4.77;3.07;;;;;;;17.27;71.59;100476.91;3586936;40;20245;-73
2021/07/31 03:11:45;;;;;;;4.43;2.73;;;;;;;17.09;72.34;100474.56;3587095;40;20566;-74
2021/07/31 03:14:11;;;;;;;4.00;3.00;;;;;;;17.06;72.75;100474.59;3586932;40;20218;-74
2021/07/31 03:16:37;;;;;;;3.80;2.60;;;;;;;17.21;72.17;100472.66;3587238;40;20232;-73
2021/07/31 03:19:02;;;;;;;3.77;2.70;;;;;;;17.19;72.35;100477.03;3588701;40;20322;-73
2021/07/31 03:21:27;;;;;;;4.63;2.77;;;;;;;17.13;73.02;100466.72;3588837;40;20299;-73
2021/07/31 03:23:52;;;;;;;4.40;2.93;;;;;;;17.47;71.76;100456.78;3588499;40;20237;-73
2021/07/31 03:26:18;;;;;;;4.77;3.13;;;;;;;17.14;72.25;100462.41;3588924;40;20221;-74
2021/07/31 03:28:43;;;;;;;3.67;2.83;;;;;;;17.27;72.56;100461.38;3588670;40;20257;-74
2021/07/31 03:31:08;;;;;;;5.40;2.90;;;;;;;17.20;72.49;100459.75;3588766;40;20221;-74
2021/07/31 03:33:34;;;;;;;3.93;2.80;;;;;;;17.08;73.15;100462.50;3588712;40;20616;-74
2021/07/31 03:35:59;;;;;;;3.83;2.87;;;;;;;17.08;73.00;100454.75;3588707;40;20572;-74
2021/07/31 03:38:24;;;;;;;3.20;2.70;;;;;;;16.78;73.55;100452.53;3588594;40;20251;-73
2021/07/31 03:40:52;;;;;;;5.50;2.77;;;;;;;16.99;73.23;100453.13;3588537;40;20217;-74
2021/07/31 03:43:17;;;;;;;6.30;2.83;;;;;;;16.78;73.55;100448.22;3588396;40;20233;-73
2021/07/31 03:45:42;;;;;;;2.93;2.20;;;;;;;16.77;73.54;100446.50;3588459;40;20313;-73
2021/07/31 03:48:07;;;;;;;5.87;3.20;;;;;;;16.76;73.54;100449.97;3588635;40;20252;-74
2021/07/31 03:50:37;;;;;;;5.20;2.80;;;;;;;16.85;73.36;100454.19;3577365;40;20238;-73
2021/07/31 03:53:03;;;;;;;5.27;2.43;;;;;;;16.79;73.58;100446.47;3578499;40;20214;-74
2021/07/31 03:55:28;;;;;;;2.70;2.20;;;;;;;16.67;74.04;100450.06;3583255;40;20229;-74
2021/07/31 03:57:53;;;;;;;2.93;2.63;;;;;;;16.73;74.21;100441.38;3588413;40;20229;-74
2021/07/31 04:00:19;;;;;;;4.23;2.60;;;;;;;16.87;73.50;100435.19;3588713;40;20213;-73
2021/07/31 04:02:44;;;;;;;4.57;2.80;;;;;;;17.20;72.43;100436.44;3588350;40;20241;-73
2021/07/31 04:05:09;;;;;;;2.73;2.10;;;;;;;16.98;72.78;100435.03;3588458;40;20226;-74
2021/07/31 04:07:35;;;;;;;4.30;2.70;;;;;;;17.44;71.58;100436.13;3588533;40;20226;-73
2021/07/31 04:10:00;;;;;;;4.10;2.50;;;;;;;17.55;70.41;100439.41;3588458;40;20230;-73
2021/07/31 04:12:25;;;;;;;5.43;2.60;;;;;;;17.51;71.35;100442.94;3588596;40;20236;-74
2021/07/31 04:14:50;;;;;;;5.90;3.10;;;;;;;17.46;71.34;100445.56;3588561;40;20323;-74
2021/07/31 04:17:16;;;;;;;9.07;2.63;;;;;;;17.40;71.42;100442.25;3588511;40;20229;-74
2021/07/31 04:19:42;;;;;;;3.53;2.67;;;;;;;17.36;71.18;100440.53;3588208;40;20233;-74
2021/07/31 04:22:07;;;;;;;5.17;2.93;;;;;;;17.46;70.52;100440.41;3588553;40;20272;-74
2021/07/31 04:24:34;;;;;;;4.80;2.97;;;;;;;17.38;70.84;100442.22;3588373;40;20575;-74
2021/07/31 04:26:59;;;;;;;5.57;2.63;;;;;;;17.51;69.65;100440.34;3588290;40;20272;-74
2021/07/31 04:29:24;;;;;;;2.93;2.43;;;;;;;17.46;69.58;100445.56;3588114;40;20233;-74
2021/07/31 04:31:49;;;;;;;5.37;2.43;;;;;;;17.57;69.34;100448.88;3588246;40;20225;-74
2021/07/31 04:34:15;;;;;;;5.70;2.43;;;;;;;17.53;69.45;100447.22;3588447;40;20233;-74
2021/07/31 04:36:40;;;;;;;3.77;2.30;;;;;;;17.41;69.07;100438.78;3588428;40;20600;-74
2021/07/31 04:39:06;;;;;;;5.47;2.83;;;;;;;17.30;69.30;100435.44;3588166;40;20256;-74
2021/07/31 04:41:32;;;;;;;4.83;2.43;;;;;;;17.44;69.14;100431.81;3588285;40;20225;-74
2021/07/31 04:43:57;;;;;;;2.57;2.20;;;;;;;17.37;69.55;100435.31;3588180;40;20693;-74
2021/07/31 04:46:22;;;;;;;4.57;2.23;;;;;;;17.40;69.54;100435.31;3588071;40;20221;-74
2021/07/31 04:48:48;;;;;;;5.30;2.40;;;;;;;17.40;69.38;100429.31;3588208;40;20251;-74
2021/07/31 04:51:13;;;;;;;4.60;2.73;;;;;;;17.50;69.38;100431.72;3588144;40;20221;-74
2021/07/31 04:53:38;;;;;;;4.97;2.70;;;;;;;17.49;68.92;100431.72;3588059;40;20251;-74
2021/07/31 04:56:04;;;;;;;4.30;2.40;;;;;;;17.43;69.23;100431.81;3588240;40;20520;-74
2021/07/31 04:58:30;;;;;;;3.80;2.03;;;;;;;17.44;68.94;100439.56;3588390;40;20516;-74
2021/07/31 05:00:55;;;;;;;7.10;2.70;;;;;;;17.64;68.27;100423.75;3588019;40;20237;-74
2021/07/31 05:03:21;;;;;;;4.43;2.23;;;;;;;17.71;67.94;100425.34;3588017;40;20271;-74
2021/07/31 05:05:47;;;;;;;4.70;2.37;;;;;;;17.65;68.16;100426.31;3588354;40;20221;-74
2021/07/31 05:08:13;;;;;;;5.00;2.83;;;;;;;17.64;68.21;100426.34;3587703;40;20253;-74
2021/07/31 05:10:43;;;;;;;3.97;2.47;;;;;;;17.65;67.88;100425.44;3587848;40;20254;-74
2021/07/31 05:13:08;;;;;;;4.67;2.23;;;;;;;17.44;68.27;100430.94;3587836;40;20225;-74
2021/07/31 05:15:38;;;;;;;4.60;2.57;;;;;;;17.49;68.37;100429.13;3588221;40;20315;-74
2021/07/31 05:18:08;;;;;;;6.10;2.50;;;;;;;17.64;67.86;100421.16;3588057;40;20277;-74
2021/07/31 05:20:34;;;;;;;3.37;2.37;;;;;;;17.72;67.29;100424.44;3588210;40;20306;-74
2021/07/31 05:23:00;;;;;;;3.73;2.10;;;;;;;17.90;66.75;100427.59;3587699;40;20273;-74
2021/07/31 05:25:25;;;;;;;4.37;2.27;;;;;;;17.90;66.14;100421.56;3588047;40;20225;-74
2021/07/31 05:27:51;;;;;;;4.37;2.40;;;;;;;17.98;65.51;100419.69;3588298;40;20366;-74
2021/07/31 05:30:16;;;;;;;4.17;2.47;;;;;;;17.98;64.87;100424.88;3587721;40;20217;-74
2021/07/31 05:32:41;;;;;;;4.37;2.50;;;;;;;17.94;65.57;100426.69;3588075;40;20256;-74
2021/07/31 05:35:07;;;;;;;5.43;2.27;;;;;;;17.88;65.13;100415.56;3587889;40;20218;-74
2021/07/31 05:37:33;;;;;;;7.80;2.30;;;;;;;17.92;64.74;100415.47;3587750;40;20266;-74
2021/07/31 05:39:59;;;;;;;5.10;2.27;;;;;;;17.93;64.61;100414.63;3587285;40;20238;-74
2021/07/31 05:42:25;;;;;;;6.07;2.40;;;;;;;17.83;65.42;100422.56;3589454;40;20229;-74
2021/07/31 05:44:55;;;;;;;5.93;2.70;;;;;;;17.84;64.70;100419.94;3589748;40;20225;-75
2021/07/31 05:47:23;;;;;;;4.27;2.10;;;;;;;17.67;65.89;100413.31;3589348;40;20222;-74
2021/07/31 05:49:49;;;;;;;6.33;2.27;;;;;;;17.71;65.36;100421.03;3587936;40;20229;-75
2021/07/31 05:52:14;;;;;;;7.77;2.47;;;;;;;17.89;64.52;100412.09;3587945;40;20222;-74
2021/07/31 05:54:39;;;;;;;4.37;2.37;;;;;;;17.69;65.08;100412.41;3588003;40;20302;-74
2021/07/31 05:57:05;;;;;;;5.30;2.50;;;;;;;17.92;64.12;100409.44;3587768;40;20224;-74
2021/07/31 05:59:30;;;;;;;6.37;2.37;;;;;;;17.96;64.56;100418.88;3587857;40;20252;-74
2021/07/31 06:01:55;;;;;;;5.20;2.30;;;;;;;18.06;63.83;100412.66;3588102;40;20338;-74
2021/07/31 06:04:21;;;;;;;6.97;2.20;;;;;;;18.06;63.25;100407.47;3587851;40;20836;-74
2021/07/31 06:06:46;;;;;;;6.77;2.73;;;;;;;17.92;63.58;100407.69;3587743;40;20225;-74
2021/07/31 06:09:11;;;;;;;5.60;2.27;;;;;;;18.01;62.89;100402.34;3587281;40;20239;-74
2021/07/31 06:11:36;;;;;;;3.63;1.80;;;;;;;17.97;63.45;100405.03;3587641;40;20225;-74
2021/07/31 06:14:02;;;;;;;6.07;2.30;;;;;;;17.96;63.78;100401.59;3587640;40;20498;-74
2021/07/31 06:16:27;;;;;;;4.60;2.20;;;;;;;18.05;63.26;100413.53;3587508;40;20233;-74
2021/07/31 06:18:53;;;;;;;4.77;2.30;;;;;;;18.05;63.53;100405.75;3587327;40;20229;-74
2021/07/31 06:21:18;;;;;;;5.07;2.50;;;;;;;18.01;62.87;100404.09;3587150;40;20513;-74
2021/07/31 06:23:44;;;;;;;7.13;2.57;;;;;;;18.01;63.01;100398.94;3586618;40;20684;-74
2021/07/31 06:26:09;;;;;;;4.77;2.57;;;;;;;18.02;63.55;100400.63;3579356;40;20226;-72
2021/07/31 06:28:35;;;;;;;3.40;2.00;;;;;;;17.99;63.17;100398.06;3577526;40;20346;-76
2021/07/31 06:31:00;;;;;;;5.50;2.50;;;;;;;18.08;62.95;100395.31;3577974;40;20237;-75
2021/07/31 06:33:25;;;;;;;4.03;2.13;;;;;;;18.17;62.30;100400.34;3568685;40;20226;-72
2021/07/31 06:35:51;;;;;;;3.63;2.10;;;;;;;18.21;62.29;100396.81;3577777;40;20218;-73
2021/07/31 06:38:16;;;;;;;4.80;2.00;;;;;;;18.29;62.40;100398.38;3577493;40;20765;-73
2021/07/31 06:40:43;;;;;;;8.50;2.83;;;;;;;18.39;61.38;100399.09;3577306;40;20230;-73
2021/07/31 06:43:08;;;;;;;5.93;2.23;;;;;;;18.43;61.69;100399.00;3577506;40;20234;-73
2021/07/31 06:45:33;;;;;;;5.83;2.30;;;;;;;18.47;60.65;100410.19;3577544;40;20518;-73
2021/07/31 06:47:59;;;;;;;4.67;2.00;;;;;;;18.42;61.11;100386.09;3577385;40;20238;-72
2021/07/31 06:50:24;;;;;;;5.63;2.30;;;;;;;18.52;60.88;100391.03;3577421;40;20496;-72
2021/07/31 06:52:49;;;;;;;5.33;2.37;;;;;;;18.58;60.81;100393.53;3578308;40;20257;-74
2021/07/31 06:55:14;;;;;;;4.83;2.10;;;;;;;18.66;60.48;100391.59;3583000;40;20315;-73
2021/07/31 06:57:40;;;;;;;7.73;2.30;;;;;;;18.70;60.66;100395.00;3588572;40;20213;-73
2021/07/31 07:00:06;;;;;;;5.20;2.40;;;;;;;18.80;59.42;100388.75;3588799;40;20225;-73
2021/07/31 07:02:31;;;;;;;6.13;2.33;;;;;;;18.88;59.49;100392.03;3588917;40;20248;-74
2021/07/31 07:04:56;;;;;;;5.37;2.37;;;;;;;18.86;59.62;100383.41;3588862;40;20229;-73
2021/07/31 07:07:22;;;;;;;7.70;2.50;;;;;;;18.87;59.63;100385.09;3584292;40;20229;-73
2021/07/31 07:09:47;;;;;;;7.33;2.10;;;;;;;18.91;60.11;100385.03;3587384;40;20272;-74
2021/07/31 07:12:12;;;;;;;5.63;2.27;;;;;;;18.99;59.19;100384.84;3588197;40;20260;-74
2021/07/31 07:14:37;;;;;;;7.30;2.43;;;;;;;18.99;59.25;100387.44;3588497;40;20237;-74
2021/07/31 07:17:06;;;;;;;4.27;2.40;;;;;;;18.94;59.33;100384.97;3588569;40;20232;-74
2021/07/31 07:19:32;;;;;;;5.67;2.63;;;;;;;18.95;59.46;100383.22;3588359;40;20339;-74
2021/07/31 07:21:58;;;;;;;6.17;2.40;;;;;;;18.91;59.27;100387.63;3588439;40;20255;-74
2021/07/31 07:24:23;;;;;;;6.90;3.03;;;;;;;18.89;59.34;100384.19;3588509;40;20489;-75
2021/07/31 07:26:48;;;;;;;4.17;2.57;;;;;;;18.90;59.02;100380.72;3588628;40;20228;-75
2021/07/31 07:29:14;;;;;;;5.30;2.20;;;;;;;18.94;59.03;100382.38;3588444;40;20589;-75
2021/07/31 07:31:40;;;;;;;4.13;2.13;;;;;;;19.04;59.32;100386.47;3588772;40;20534;-74
2021/07/31 07:34:05;;;;;;;7.10;2.57;;;;;;;19.16;58.43;100375.78;3588507;40;20233;-74
2021/07/31 07:36:30;;;;;;;8.80;2.83;;;;;;;19.14;58.62;100369.78;3588549;40;20233;-75
2021/07/31 07:38:56;;;;;;;4.50;2.30;;;;;;;19.17;57.86;100377.50;3588542;40;20677;-74
2021/07/31 07:41:21;;;;;;;5.07;2.37;;;;;;;19.15;58.26;100366.28;3588522;40;20225;-74
2021/07/31 07:43:46;;;;;;;5.20;2.60;;;;;;;19.17;58.11;100368.88;3588618;40;20225;-75
2021/07/31 07:46:16;;;;;;;5.10;2.70;;;;;;;19.21;58.54;100371.34;3588634;40;20228;-75
2021/07/31 07:48:42;;;;;;;5.87;2.53;;;;;;;19.24;59.01;100375.63;3588671;40;20243;-75
2021/07/31 07:51:07;;;;;;;8.80;2.43;;;;;;;19.31;58.40;100374.63;3588624;40;20249;-74
2021/07/31 07:53:33;;;;;;;5.70;2.33;;;;;;;19.26;58.36;100374.72;3588555;40;20232;-75
2021/07/31 07:55:58;;;;;;;6.30;2.70;;;;;;;19.26;58.28;100363.50;3588353;40;20264;-75
2021/07/31 07:58:23;;;;;;;9.03;2.60;;;;;;;19.23;58.07;100372.22;3588270;40;20248;-75
2021/07/31 08:00:49;;;;;;;5.70;2.53;;;;;;;19.20;58.59;100369.63;3588284;40;20249;-74
2021/07/31 08:03:14;;;;;;;4.90;2.67;;;;;;;19.19;58.72;100382.66;3587802;40;20256;-75
2021/07/31 08:05:40;;;;;;;7.13;2.63;;;;;;;19.02;59.46;100375.25;3578271;40;20527;-74
2021/07/31 08:08:08;;;;;;;9.63;3.13;;;;;;;18.82;61.00;100399.91;3578456;40;20233;-74
2021/07/31 08:10:34;;;;;;;4.60;2.70;;;;;;;18.54;62.33;100404.84;3583907;40;20230;-74
2021/07/31 08:13:00;;;;;;;6.63;2.63;;;;;;;18.30;62.92;100400.09;3588212;40;20247;-74
2021/07/31 08:15:25;;;;;;;3.83;2.97;;;;;;;18.29;63.91;100395.78;3588333;40;20221;-74
2021/07/31 08:17:50;;;;;;;4.60;2.83;;;;;;;18.32;64.08;100403.50;3588595;40;20279;-74
2021/07/31 08:20:16;;;;;;;5.97;3.00;;;;;;;18.28;63.86;100388.88;3587526;40;20225;-75
2021/07/31 08:22:41;;;;;;;5.93;2.83;;;;;;;18.31;63.55;100398.34;3578476;40;20237;-74
2021/07/31 08:25:08;;;;;;;6.70;3.13;;;;;;;18.29;63.95;100397.53;3578156;40;20226;-74
2021/07/31 08:27:34;;;;;;;4.20;2.70;;;;;;;18.34;63.69;100398.31;3578313;40;20286;-74
2021/07/31 08:29:59;;;;;;;4.57;2.63;;;;;;;18.45;64.05;100407.59;3578045;40;20604;-75
2021/07/31 08:32:24;;;;;;;6.47;2.70;;;;;;;18.47;64.74;100405.81;3578240;40;20322;-75
2021/07/31 08:34:50;;;;;;;7.07;3.30;;;;;;;18.31;65.46;100398.34;3577912;40;20233;-74
2021/07/31 08:37:16;;;;;;;5.17;3.30;;;;;;;18.24;65.40;100389.00;3577913;40;20225;-74
2021/07/31 08:39:41;;;;;;;9.63;3.70;;;;;;;18.22;65.77;100401.09;3568642;40;20404;-74
2021/07/31 08:42:07;;;;;;;9.07;3.53;;;;;;;18.21;66.18;100395.09;3577963;40;20238;-75
2021/07/31 08:44:34;;;;;;;5.43;3.37;;;;;;;18.37;65.85;100391.34;3577980;40;20226;-74
2021/07/31 08:47:02;;;;;;;5.37;3.30;;;;;;;18.62;65.59;100387.38;3578069;40;20233;-75
2021/07/31 08:49:27;;;;;;;6.30;3.67;;;;;;;18.88;64.44;100379.88;3577813;40;20234;-74
2021/07/31 08:51:56;;;;;;;6.83;3.17;;;;;;;19.19;63.68;100383.50;3578560;40;20670;-75
2021/07/31 08:54:21;;;;;;;5.23;3.33;;;;;;;19.34;63.07;100383.19;3582239;40;20228;-75
2021/07/31 08:56:46;;;;;;;7.10;3.17;;;;;;;19.58;62.72;100382.59;3583957;40;20584;-75
2021/07/31 08:59:12;;;;;;;4.57;3.10;;;;;;;19.74;62.02;100378.75;3587787;40;20244;-75
2021/07/31 09:01:37;;;;;;;5.40;2.80;;;;;;;19.82;61.03;100383.75;3588610;40;20248;-75
2021/07/31 09:04:14;;;;;;;4.87;2.80;;;;;;;19.77;60.44;100393.41;3584972;40;20624;-74
2021/07/31 09:06:39;;;;;;;5.47;2.90;;;;;;;19.59;61.03;100388.66;3582216;40;20548;-75
2021/07/31 09:09:04;;;;;;;6.73;2.60;;;;;;;19.49;60.88;100377.63;3580669;40;20229;-74
2021/07/31 09:11:30;;;;;;;4.03;2.57;;;;;;;19.51;61.19;100387.97;3583678;40;20222;-74
2021/07/31 09:14:10;;;;;;;4.60;2.70;;;;;;;19.65;60.66;100386.75;3587808;40;20225;-74
2021/07/31 09:16:35;;;;;;;6.10;2.67;;;;;;;19.91;59.60;100386.97;3587709;40;20317;-75
2021/07/31 09:19:08;;;;;;;4.50;2.50;;;;;;;19.98;57.77;100377.22;3587803;40;20623;-75
2021/07/31 09:21:33;;;;;;;6.13;2.70;;;;;;;20.21;57.84;100380.09;3578711;40;20567;-75
2021/07/31 09:23:59;;;;;;;5.67;2.87;;;;;;;20.12;58.66;100376.03;3588019;40;20229;-75
2021/07/31 09:26:25;;;;;;;5.87;2.80;;;;;;;20.43;56.86;100371.69;3587870;40;20228;-75
2021/07/31 09:29:03;;;;;;;3.77;2.50;;;;;;;20.53;56.56;100370.53;3587672;40;20244;-75
2021/07/31 09:31:29;;;;;;;4.63;2.47;;;;;;;20.60;55.03;100372.03;3578477;40;20247;-75
2021/07/31 09:33:57;;;;;;;4.17;2.33;;;;;;;20.71;56.57;100363.94;3587808;40;20262;-75
2021/07/31 09:36:23;;;;;;;5.67;2.60;;;;;;;21.02;55.16;100356.94;3587930;40;20248;-74
2021/07/31 09:38:49;;;;;;;5.43;2.47;;;;;;;21.24;54.57;100365.78;3587756;40;20255;-75
2021/07/31 09:41:20;;;;;;;3.97;2.20;;;;;;;21.28;53.99;100363.03;3587734;40;20600;-75
2021/07/31 09:44:04;;;;;;;4.10;2.30;;;;;;;21.36;54.45;100350.63;3587442;40;20331;-75
2021/07/31 09:46:50;;;;;;;8.13;2.33;;;;;;;21.43;52.38;100364.31;3587689;40;20237;-75
2021/07/31 09:49:15;;;;;;;4.13;2.37;;;;;;;21.23;53.12;100372.75;3587508;40;20331;-75
2021/07/31 09:51:43;;;;;;;4.93;2.27;;;;;;;21.20;53.79;100359.84;3587576;40;20237;-75
2021/07/31 09:54:10;;;;;;;4.77;2.30;;;;;;;20.99;53.20;100370.91;3587592;40;20539;-75
2021/07/31 09:56:40;;;;;;;6.73;2.50;;;;;;;21.07;53.67;100375.88;3583624;40;20259;-75
2021/07/31 09:59:07;;;;;;;4.33;2.40;;;;;;;21.01;53.49;100355.25;3587800;40;20244;-75
2021/07/31 10:01:39;;;;;;;5.63;2.70;;;;;;;21.13;53.04;100354.84;3588089;40;20592;-75
2021/07/31 10:04:05;;;;;;;5.53;2.03;;;;;;;21.16;52.04;100346.94;3587552;40;20236;-75
2021/07/31 10:06:32;;;;;;;4.33;2.43;;;;;;;21.22;53.12;100344.13;3587097;40;20248;-74
2021/07/31 10:08:59;;;;;;;5.20;2.20;;;;;;;21.39;51.99;100342.72;3587803;40;20267;-75
2021/07/31 10:11:26;;;;;;;5.17;2.20;;;;;;;21.68;51.99;100339.97;3587852;40;20233;-75
2021/07/31 10:13:53;;;;;;;4.10;2.50;;;;;;;21.91;51.22;100332.25;3587763;40;20512;-75
2021/07/31 10:16:18;;;;;;;3.13;1.83;;;;;;;21.81;50.54;100341.31;3586860;40;20594;-75
2021/07/31 10:19:04;;;;;;;3.33;1.80;;;;;;;21.71;51.06;100326.03;3581742;40;20242;-75
2021/07/31 10:21:33;;;;;;;5.80;2.10;;;;;;;21.35;51.49;100341.09;3586762;40;20225;-75
2021/07/31 10:24:00;;;;;;;4.07;2.30;;;;;;;21.15;52.67;100345.25;3587667;40;20229;-75
2021/07/31 10:26:27;;;;;;;3.60;2.03;;;;;;;20.98;52.43;100339.69;3587015;40;20238;-74
2021/07/31 10:28:52;;;;;;;3.70;2.10;;;;;;;20.87;54.11;100350.41;3587361;40;20259;-75
2021/07/31 10:31:31;;;;;;;4.27;2.00;;;;;;;20.82;54.30;100346.25;3587721;40;20229;-75
2021/07/31 10:33:57;;;;;;;3.67;1.83;;;;;;;20.79;54.02;100343.75;3587799;40;20249;-74
2021/07/31 10:36:33;;;;;;;3.17;1.97;;;;;;;21.06;52.79;100338.56;3587635;40;20221;-75
2021/07/31 10:39:19;;;;;;;4.60;1.87;;;;;;;21.07;52.78;100342.88;3587641;40;20639;-74
2021/07/31 10:41:59;;;;;;;7.07;2.20;;;;;;;21.22;51.65;100333.72;3587529;40;20566;-75
2021/07/31 10:44:26;;;;;;;4.80;1.87;;;;;;;21.46;51.43;100338.16;3587579;40;20247;-75
2021/07/31 10:47:20;;;;;;;3.40;1.80;;;;;;;21.78;51.85;100319.69;3589377;40;20227;-75
2021/07/31 10:49:46;;;;;;;4.93;1.97;;;;;;;22.04;51.13;100317.03;3585452;40;20248;-75
2021/07/31 10:52:50;;;;;;;4.00;1.90;;;;;;;22.15;49.59;100320.94;3590461;40;20221;-75
2021/07/31 10:55:20;;;;;;;4.27;1.80;;;;;;;21.95;51.53;100313.00;3588308;40;20236;-75
2021/07/31 10:57:58;;;;;;;5.23;1.80;;;;;;;21.95;51.01;100317.34;3588104;40;20620;-75
2021/07/31 11:00:53;;;;;;;4.37;2.10;;;;;;;21.68;51.40;100313.06;3587842;40;20235;-74
2021/07/31 11:03:21;;;;;;;6.70;1.90;;;;;;;21.49;52.34;100319.78;3536424;40;20672;-75
2021/07/31 11:05:49;;;;;;;3.17;1.77;;;;;;;21.43;53.03;100331.25;3536254;40;20225;-75
2021/07/31 11:08:21;;;;;;;2.40;1.50;;;;;;;21.38;53.75;100322.75;3569564;40;20237;-75
2021/07/31 11:10:51;;;;;;;2.73;1.70;;;;;;;21.34;53.75;100329.00;3581643;40;20316;-74
2021/07/31 11:13:16;;;;;;;3.20;1.70;;;;;;;21.57;53.71;100323.00;3583380;40;20299;-75
2021/07/31 11:15:56;;;;;;;3.57;1.70;;;;;;;21.76;53.40;100324.13;3577740;40;20241;-75
2021/07/31 11:18:36;;;;;;;2.87;1.50;;;;;;;21.71;51.84;100326.88;3581568;40;20620;-75
2021/07/31 11:21:11;;;;;;;3.73;1.50;;;;;;;21.62;52.38;100336.72;3577603;40;20480;-75